Williams, Arizona
Current Conditions -  °F | °C
As of 4:57 AM on Monday 22 Dec 2014 (Local Time) from KFLG Reporting Station
Clear Clear  
Wind Chill: 42°   Ceiling: Unl
Heat Index: 42°   Visibility: 10mi
Dew Point: 30°   Wind: 3mph
Humidity: 62%   Direction: NA
Pressure: 30.07"   Gusts: NA
Location:  35.25°N, 112.19°W
Report Text: KFLG 221157Z AUTO VRB03KT 10SM CLR 06/M01 A3007 RMK AO2 SLP134 T00561011 10061 20033 56010 TSNO
Loading
Personal Weather Stations






























Interactive Weather Map New forecast layout! Learn more

10-Day Weather Forecast

Advertisements
Track Severe Weather on mobile